Carrollton, Texas
Current Conditions -  °F | °C
As of 4:49 PM on Friday 19 Dec 2014 (Local Time) from KADS Reporting Station
Haze Haze  
Wind Chill: 45°   Ceiling: 800
Heat Index: 48°   Visibility: 4mi
Dew Point: 45°   Wind: 8mph
Humidity: 87%   Direction: 350°N
Pressure: 30.17"   Gusts: NA
Location:  32.98°N, 96.89°W
Report Text: KADS 192249Z 35007KT 4SM BR OVC008 09/07 A3017
Loading
Personal Weather Stations






























Interactive Weather Map New forecast layout! Learn more

10-Day Weather Forecast

Advertisements
Track Severe Weather on mobile